Time;durP1;ratioP1;P1;durP2;ratioP2;P2;SDS_P1;SDS_P2;PMS_P1;PMS_P2;Temp;Humidity;BMP_temperature;BMP_pressure;BME280_temperature;BME280_humidity;BME280_pressure;Samples;Min_cycle;Max_cycle;Signal;HPM_P1;HPM_P2
2021/12/28 00:03:26;;;;;;;72.23;22.93;;;;;;;;;;6139519;23;20299;-91
2021/12/28 00:06:32;;;;;;;71.90;22.73;;;;;;;;;;6189567;23;20167;-90
2021/12/28 00:09:37;;;;;;;67.37;22.17;;;;;;;;;;6189254;23;20168;-93
2021/12/28 00:12:43;;;;;;;64.00;21.43;;;;;;;;;;6190030;23;20204;-93
2021/12/28 00:16:02;;;;;;;68.67;22.43;;;;;;;;;;6189181;23;20591;-90
2021/12/28 00:19:09;;;;;;;68.10;21.50;;;;;;;;;;6190552;23;20172;-93
2021/12/28 00:22:15;;;;;;;64.87;21.20;;;;;;;;;;6189077;23;20172;-94
2021/12/28 00:25:20;;;;;;;59.43;19.37;;;;;;;;;;6187828;23;20172;-91
2021/12/28 00:28:26;;;;;;;66.67;20.53;;;;;;;;;;6189525;23;20172;-91
2021/12/28 00:31:33;;;;;;;68.13;20.80;;;;;;;;;;6190266;23;20212;-92
2021/12/28 00:38:31;;;;;;;79.87;23.10;;;;;;;;;;6188030;23;20219;-91
2021/12/28 00:41:36;;;;;;;78.53;24.00;;;;;;;;;;6188290;23;20666;-92
2021/12/28 00:44:42;;;;;;;71.10;20.37;;;;;;;;;;6190015;23;20172;-91
2021/12/28 00:47:47;;;;;;;70.27;22.73;;;;;;;;;;6190015;23;20167;-90
2021/12/28 00:50:52;;;;;;;76.47;22.83;;;;;;;;;;6188244;23;20192;-92
2021/12/28 00:53:59;;;;;;;79.17;23.23;;;;;;;;;;6190396;23;20221;-91
2021/12/28 00:57:05;;;;;;;68.37;21.63;;;;;;;;;;6190738;23;20199;-92
2021/12/28 01:00:13;;;;;;;77.87;21.90;;;;;;;;;;6188168;23;20147;-90
2021/12/28 01:03:18;;;;;;;66.17;22.07;;;;;;;;;;6189167;23;20191;-90
2021/12/28 01:06:24;;;;;;;72.23;22.37;;;;;;;;;;6187686;23;20163;-91
2021/12/28 01:09:32;;;;;;;82.10;22.67;;;;;;;;;;6187021;23;20176;-92
2021/12/28 01:16:59;;;;;;;70.40;21.93;;;;;;;;;;6206928;23;20156;-92
2021/12/28 01:20:06;;;;;;;78.80;23.93;;;;;;;;;;6188575;23;20180;-90
2021/12/28 01:23:12;;;;;;;67.73;21.33;;;;;;;;;;6189698;23;20188;-91
2021/12/28 01:26:18;;;;;;;73.83;22.20;;;;;;;;;;6189822;23;20225;-91
2021/12/28 01:29:24;;;;;;;77.73;22.90;;;;;;;;;;6188544;23;20151;-92
2021/12/28 01:32:30;;;;;;;76.53;23.07;;;;;;;;;;6188471;23;20171;-91
2021/12/28 01:36:11;;;;;;;69.57;22.33;;;;;;;;;;6189514;23;20168;-91
2021/12/28 01:39:16;;;;;;;72.47;22.93;;;;;;;;;;6189394;23;20235;-91
2021/12/28 01:42:24;;;;;;;71.27;22.10;;;;;;;;;;6188664;23;20155;-90
2021/12/28 01:45:38;;;;;;;76.73;23.87;;;;;;;;;;6187481;23;20164;-92
2021/12/28 01:48:44;;;;;;;81.13;23.80;;;;;;;;;;6189428;23;20204;-91
2021/12/28 01:51:53;;;;;;;82.80;24.37;;;;;;;;;;6190014;23;20204;-92
2021/12/28 01:54:59;;;;;;;69.37;23.33;;;;;;;;;;6188835;23;20152;-92
2021/12/28 01:58:06;;;;;;;75.17;23.13;;;;;;;;;;6188568;23;20199;-92
2021/12/28 02:01:11;;;;;;;72.03;21.93;;;;;;;;;;6186479;23;20164;-91
2021/12/28 02:04:17;;;;;;;71.87;22.53;;;;;;;;;;6173926;23;20293;-92
2021/12/28 02:07:23;;;;;;;71.73;22.73;;;;;;;;;;6172918;23;20169;-92
2021/12/28 02:10:28;;;;;;;66.43;21.13;;;;;;;;;;6174227;23;20156;-93
2021/12/28 02:13:36;;;;;;;68.33;22.20;;;;;;;;;;6175445;23;20172;-92
2021/12/28 02:16:45;;;;;;;82.00;22.97;;;;;;;;;;6175195;23;20209;-92
2021/12/28 02:19:51;;;;;;;75.77;22.03;;;;;;;;;;6175266;23;20201;-90
2021/12/28 02:22:59;;;;;;;78.00;23.30;;;;;;;;;;6173972;23;20173;-92
2021/12/28 02:26:05;;;;;;;68.97;22.60;;;;;;;;;;6173691;23;20166;-92
2021/12/28 02:29:10;;;;;;;71.63;21.70;;;;;;;;;;6174164;23;20169;-93
2021/12/28 02:32:16;;;;;;;68.20;21.07;;;;;;;;;;6173598;23;20531;-91
2021/12/28 02:35:22;;;;;;;70.10;22.67;;;;;;;;;;6175270;23;20148;-92
2021/12/28 02:38:29;;;;;;;64.73;21.03;;;;;;;;;;6174694;23;20196;-91
2021/12/28 02:41:34;;;;;;;77.30;23.37;;;;;;;;;;6172007;23;20172;-92
2021/12/28 02:44:39;;;;;;;66.73;22.10;;;;;;;;;;6173896;23;20202;-92
2021/12/28 02:47:46;;;;;;;72.73;23.50;;;;;;;;;;6174910;23;20180;-91
2021/12/28 02:50:54;;;;;;;76.10;22.80;;;;;;;;;;6173437;23;20161;-91
2021/12/28 02:54:04;;;;;;;70.40;23.57;;;;;;;;;;6156038;23;20263;-91
2021/12/28 02:57:09;;;;;;;68.37;23.97;;;;;;;;;;6172995;23;20181;-91
2021/12/28 03:00:16;;;;;;;72.13;23.93;;;;;;;;;;6172904;23;20274;-90
2021/12/28 03:03:22;;;;;;;72.87;22.57;;;;;;;;;;6181340;23;20631;-93
2021/12/28 03:06:28;;;;;;;68.50;22.03;;;;;;;;;;6189780;23;20168;-90
2021/12/28 03:09:36;;;;;;;69.60;23.00;;;;;;;;;;6191202;23;20168;-93
2021/12/28 03:12:41;;;;;;;69.30;21.93;;;;;;;;;;6188531;23;20160;-93
2021/12/28 03:15:47;;;;;;;69.17;23.90;;;;;;;;;;6186277;23;20164;-93
2021/12/28 03:18:53;;;;;;;76.07;23.93;;;;;;;;;;6188662;23;20198;-92
2021/12/28 03:21:58;;;;;;;75.53;25.37;;;;;;;;;;6190548;23;20152;-92
2021/12/28 03:25:09;;;;;;;77.23;24.53;;;;;;;;;;6191416;23;20167;-92
2021/12/28 03:28:27;;;;;;;69.70;23.07;;;;;;;;;;6189647;23;20189;-91
2021/12/28 03:31:33;;;;;;;84.17;25.57;;;;;;;;;;6188942;23;20165;-90
2021/12/28 03:34:39;;;;;;;75.93;24.03;;;;;;;;;;6188941;23;20213;-92
2021/12/28 03:52:30;;;;;;;77.97;24.13;;;;;;;;;;6117243;23;20520;-89
2021/12/28 03:55:36;;;;;;;88.07;24.83;;;;;;;;;;6159672;23;20169;-91
2021/12/28 03:58:42;;;;;;;75.37;24.90;;;;;;;;;;6160717;23;20228;-92
2021/12/28 04:01:48;;;;;;;73.57;22.97;;;;;;;;;;6159206;23;20217;-91
2021/12/28 04:04:53;;;;;;;81.07;24.40;;;;;;;;;;6158565;23;20258;-92
2021/12/28 04:28:34;;;;;;;76.17;23.30;;;;;;;;;;6175560;23;20437;-92
2021/12/28 04:31:39;;;;;;;78.60;25.47;;;;;;;;;;6190409;23;20163;-91
2021/12/28 04:34:45;;;;;;;81.53;24.97;;;;;;;;;;6188115;23;20168;-92
2021/12/28 04:37:52;;;;;;;78.30;25.73;;;;;;;;;;6189871;23;20151;-92
2021/12/28 04:40:57;;;;;;;77.83;23.60;;;;;;;;;;6189860;23;20171;-89
2021/12/28 04:44:06;;;;;;;82.63;24.33;;;;;;;;;;6190381;23;20187;-92
2021/12/28 04:47:12;;;;;;;76.57;23.27;;;;;;;;;;6189832;23;20215;-90
2021/12/28 04:50:19;;;;;;;72.17;22.90;;;;;;;;;;6188709;23;20213;-92
2021/12/28 04:53:25;;;;;;;83.33;25.17;;;;;;;;;;6188105;23;20205;-91
2021/12/28 04:56:30;;;;;;;76.57;24.63;;;;;;;;;;6188349;23;20155;-92
2021/12/28 04:59:41;;;;;;;76.00;23.13;;;;;;;;;;6186881;23;20639;-91
2021/12/28 05:03:27;;;;;;;75.83;23.87;;;;;;;;;;6187339;23;20167;-91
2021/12/28 05:06:34;;;;;;;85.87;24.77;;;;;;;;;;6205938;23;20172;-92
2021/12/28 05:09:40;;;;;;;80.33;24.53;;;;;;;;;;6188120;23;20155;-92
2021/12/28 05:12:45;;;;;;;71.50;23.23;;;;;;;;;;6188423;23;20216;-90
2021/12/28 05:15:53;;;;;;;71.70;23.47;;;;;;;;;;6188947;23;20555;-93
2021/12/28 05:18:59;;;;;;;77.87;25.20;;;;;;;;;;6188606;23;20524;-92
2021/12/28 05:22:08;;;;;;;85.57;23.57;;;;;;;;;;6189841;23;20156;-92
2021/12/28 05:25:14;;;;;;;83.17;25.50;;;;;;;;;;6190781;23;20627;-92
2021/12/28 05:28:19;;;;;;;77.30;24.37;;;;;;;;;;6177517;23;20191;-91
2021/12/28 05:31:28;;;;;;;74.77;24.17;;;;;;;;;;6178288;23;20177;-91
2021/12/28 05:38:58;;;;;;;82.87;25.27;;;;;;;;;;6177396;23;20192;-91
2021/12/28 05:42:04;;;;;;;79.33;25.17;;;;;;;;;;6177787;23;20168;-91
2021/12/28 05:45:10;;;;;;;81.40;26.13;;;;;;;;;;6175744;23;20172;-92
2021/12/28 05:48:17;;;;;;;82.00;25.00;;;;;;;;;;6176509;23;20160;-90
2021/12/28 05:51:23;;;;;;;81.37;23.43;;;;;;;;;;6175006;23;20197;-91
2021/12/28 05:54:29;;;;;;;73.73;24.47;;;;;;;;;;6174960;23;20161;-91
2021/12/28 05:57:34;;;;;;;70.37;23.83;;;;;;;;;;6177097;23;20193;-91
2021/12/28 06:00:40;;;;;;;72.07;24.20;;;;;;;;;;6175711;23;20180;-90
2021/12/28 06:03:49;;;;;;;85.80;25.90;;;;;;;;;;6175726;23;20148;-90
2021/12/28 06:06:54;;;;;;;85.00;25.50;;;;;;;;;;6175868;23;20255;-92
2021/12/28 06:10:00;;;;;;;68.77;22.67;;;;;;;;;;6174488;23;20193;-92
2021/12/28 06:13:05;;;;;;;79.80;23.50;;;;;;;;;;6175485;23;20181;-91
2021/12/28 06:16:10;;;;;;;67.73;19.83;;;;;;;;;;6174455;23;20197;-91
2021/12/28 06:19:17;;;;;;;80.50;24.40;;;;;;;;;;6175367;23;20199;-92
2021/12/28 06:22:23;;;;;;;83.53;25.10;;;;;;;;;;6175056;23;20167;-92
2021/12/28 06:25:29;;;;;;;81.73;25.87;;;;;;;;;;6174152;23;20173;-91
2021/12/28 06:28:34;;;;;;;80.23;24.80;;;;;;;;;;6175100;23;20204;-92
2021/12/28 06:31:40;;;;;;;83.37;23.27;;;;;;;;;;6175568;23;20168;-92
2021/12/28 06:34:48;;;;;;;77.90;23.93;;;;;;;;;;6175031;23;20169;-92
2021/12/28 06:37:54;;;;;;;78.10;23.57;;;;;;;;;;6176110;23;20172;-91
2021/12/28 06:40:59;;;;;;;81.87;24.63;;;;;;;;;;6174814;23;20240;-91
2021/12/28 06:44:06;;;;;;;81.60;24.33;;;;;;;;;;6175907;23;20173;-91
2021/12/28 06:47:12;;;;;;;78.00;25.00;;;;;;;;;;6173879;23;20164;-93
2021/12/28 06:50:19;;;;;;;74.83;23.90;;;;;;;;;;6173222;23;20153;-92
2021/12/28 06:53:25;;;;;;;84.57;24.83;;;;;;;;;;6173984;23;20242;-91
2021/12/28 06:56:34;;;;;;;87.43;25.27;;;;;;;;;;6175083;23;20237;-91
2021/12/28 06:59:43;;;;;;;82.73;24.50;;;;;;;;;;6172689;23;20192;-91
2021/12/28 07:02:49;;;;;;;84.63;25.30;;;;;;;;;;6172775;23;20221;-91
2021/12/28 07:05:56;;;;;;;79.57;24.07;;;;;;;;;;6175396;23;20181;-91
2021/12/28 07:09:01;;;;;;;87.70;25.97;;;;;;;;;;6173626;23;20164;-92
2021/12/28 07:12:06;;;;;;;83.43;24.27;;;;;;;;;;6172691;23;20251;-92
2021/12/28 07:15:12;;;;;;;88.60;26.70;;;;;;;;;;6172054;23;20244;-92
2021/12/28 07:18:17;;;;;;;85.63;26.03;;;;;;;;;;6169536;23;20168;-91
2021/12/28 07:21:24;;;;;;;92.73;26.97;;;;;;;;;;6171617;23;20161;-92
2021/12/28 07:24:30;;;;;;;108.70;30.93;;;;;;;;;;6174901;23;20169;-92
2021/12/28 07:27:35;;;;;;;105.33;29.57;;;;;;;;;;6180271;23;20244;-92
2021/12/28 07:30:41;;;;;;;100.90;28.63;;;;;;;;;;6187434;23;20225;-91
2021/12/28 07:33:46;;;;;;;78.87;26.43;;;;;;;;;;6186796;23;20172;-92
2021/12/28 07:36:53;;;;;;;88.80;26.67;;;;;;;;;;6186158;23;20167;-93
2021/12/28 07:39:58;;;;;;;90.40;28.13;;;;;;;;;;6184924;23;20642;-91
2021/12/28 10:26:31;;;;;;;71.53;23.07;;;;;;;;;;6139033;23;20216;-90
2021/12/28 10:29:36;;;;;;;83.27;25.40;;;;;;;;;;6189894;23;20168;-91
2021/12/28 10:32:42;;;;;;;108.40;31.73;;;;;;;;;;6187863;23;20212;-90
2021/12/28 10:35:49;;;;;;;83.67;25.47;;;;;;;;;;6187233;23;20216;-91
2021/12/28 10:38:55;;;;;;;66.27;21.20;;;;;;;;;;6187836;23;20166;-90
2021/12/28 10:42:03;;;;;;;65.57;22.40;;;;;;;;;;6188523;23;20167;-89
2021/12/28 10:45:10;;;;;;;68.37;23.50;;;;;;;;;;6189514;23;20152;-93
2021/12/28 10:48:16;;;;;;;65.63;21.57;;;;;;;;;;6188168;23;20168;-92
2021/12/28 10:51:24;;;;;;;67.43;21.53;;;;;;;;;;6188041;23;20199;-92
2021/12/28 10:54:30;;;;;;;67.33;21.03;;;;;;;;;;6188415;23;20224;-92
2021/12/28 10:57:41;;;;;;;69.17;22.20;;;;;;;;;;6187421;23;20179;-90
2021/12/28 11:00:47;;;;;;;66.63;21.33;;;;;;;;;;6185060;23;20196;-92
2021/12/28 11:03:54;;;;;;;63.97;20.37;;;;;;;;;;6186775;23;20270;-91
2021/12/28 11:18:17;;;;;;;67.30;21.80;;;;;;;;;;6206013;23;20175;-92
2021/12/28 11:21:23;;;;;;;61.80;19.90;;;;;;;;;;6187402;23;20207;-91
2021/12/28 11:24:31;;;;;;;82.50;25.87;;;;;;;;;;6189009;23;20179;-91
2021/12/28 11:27:36;;;;;;;83.90;23.37;;;;;;;;;;6175380;23;20180;-92
2021/12/28 11:30:42;;;;;;;77.80;23.33;;;;;;;;;;6174474;23;20221;-90
2021/12/28 11:34:00;;;;;;;66.40;19.87;;;;;;;;;;6173614;23;20172;-90
2021/12/28 11:37:07;;;;;;;90.93;24.10;;;;;;;;;;6176742;23;20177;-90
2021/12/28 11:40:13;;;;;;;72.33;22.83;;;;;;;;;;6174961;23;20295;-90
2021/12/28 11:43:18;;;;;;;63.17;20.97;;;;;;;;;;6174627;23;20156;-91
2021/12/28 11:46:24;;;;;;;67.33;21.07;;;;;;;;;;6175727;23;20190;-91
2021/12/28 11:49:32;;;;;;;72.97;22.23;;;;;;;;;;6176292;23;20242;-90
2021/12/28 11:52:38;;;;;;;69.33;20.53;;;;;;;;;;6175973;23;20153;-93
2021/12/28 11:55:43;;;;;;;76.17;22.97;;;;;;;;;;6173535;23;20261;-91
2021/12/28 11:58:56;;;;;;;69.87;21.43;;;;;;;;;;6175381;23;20244;-91
2021/12/28 12:02:02;;;;;;;66.67;20.30;;;;;;;;;;6174339;23;20188;-92
2021/12/28 12:05:16;;;;;;;58.73;18.53;;;;;;;;;;6173054;23;20184;-90
2021/12/28 12:08:22;;;;;;;56.63;19.23;;;;;;;;;;6174848;23;20148;-91
2021/12/28 12:11:27;;;;;;;62.43;18.87;;;;;;;;;;6173315;23;20177;-92
2021/12/28 12:14:47;;;;;;;66.00;20.93;;;;;;;;;;6173268;23;20185;-90
2021/12/28 12:17:57;;;;;;;62.60;19.77;;;;;;;;;;6173822;23;20216;-91
2021/12/28 12:21:06;;;;;;;66.00;20.10;;;;;;;;;;6173078;23;20196;-91
2021/12/28 12:24:11;;;;;;;56.93;19.83;;;;;;;;;;6173463;23;20164;-90
2021/12/28 12:27:31;;;;;;;79.30;22.27;;;;;;;;;;6176035;23;20200;-92
2021/12/28 12:30:47;;;;;;;77.00;22.40;;;;;;;;;;6173948;23;20164;-91
2021/12/28 12:33:52;;;;;;;69.90;21.83;;;;;;;;;;6172848;23;20272;-92
2021/12/28 12:36:59;;;;;;;69.67;21.43;;;;;;;;;;6171731;23;20629;-90
2021/12/28 12:40:05;;;;;;;62.60;19.87;;;;;;;;;;6172675;23;20776;-90
2021/12/28 12:43:14;;;;;;;64.10;19.50;;;;;;;;;;6170508;23;20216;-91
2021/12/28 12:46:21;;;;;;;71.87;22.27;;;;;;;;;;6171259;23;20183;-89
2021/12/28 12:49:28;;;;;;;69.70;19.83;;;;;;;;;;6172013;23;20233;-90
2021/12/28 12:52:35;;;;;;;71.03;21.63;;;;;;;;;;6169993;23;20174;-90
2021/12/28 12:55:41;;;;;;;69.57;19.67;;;;;;;;;;6172818;23;20197;-89
2021/12/28 12:58:51;;;;;;;74.70;20.50;;;;;;;;;;6173672;23;20172;-90
2021/12/28 13:01:59;;;;;;;77.50;22.13;;;;;;;;;;6156873;23;20171;-89
2021/12/28 13:05:15;;;;;;;78.27;21.80;;;;;;;;;;6173852;23;20176;-89
2021/12/28 13:08:24;;;;;;;76.07;22.90;;;;;;;;;;6171320;23;20253;-91
2021/12/28 13:11:31;;;;;;;73.30;21.90;;;;;;;;;;6171902;23;20169;-90
2021/12/28 13:14:37;;;;;;;66.57;22.03;;;;;;;;;;6172347;23;20157;-90
2021/12/28 13:17:43;;;;;;;66.40;21.30;;;;;;;;;;6174878;23;20224;-91
2021/12/28 13:20:49;;;;;;;67.53;19.00;;;;;;;;;;6174929;23;20215;-90
2021/12/28 13:24:07;;;;;;;64.10;21.60;;;;;;;;;;6173808;23;20222;-91
2021/12/28 13:27:18;;;;;;;60.93;20.60;;;;;;;;;;6173390;23;20213;-90
2021/12/28 13:30:25;;;;;;;72.77;22.67;;;;;;;;;;6173956;23;20193;-89
2021/12/28 13:33:30;;;;;;;63.50;20.50;;;;;;;;;;6175594;23;20187;-90
2021/12/28 13:36:49;;;;;;;71.30;22.20;;;;;;;;;;6177017;23;20177;-90
2021/12/28 13:40:02;;;;;;;68.77;22.07;;;;;;;;;;6174822;23;20188;-90
2021/12/28 13:43:11;;;;;;;73.77;22.73;;;;;;;;;;6176640;23;20189;-93
2021/12/28 13:46:18;;;;;;;66.83;22.47;;;;;;;;;;6178245;23;20180;-92
2021/12/28 13:49:24;;;;;;;64.70;21.80;;;;;;;;;;6176421;23;20209;-91
2021/12/28 13:52:40;;;;;;;66.17;22.40;;;;;;;;;;6176173;23;20171;-90
2021/12/28 13:55:54;;;;;;;74.33;22.37;;;;;;;;;;6177776;23;20218;-91
2021/12/28 13:59:06;;;;;;;69.33;21.87;;;;;;;;;;6176879;23;20180;-89
2021/12/28 14:05:37;;;;;;;71.27;23.60;;;;;;;;;;6173939;23;20222;-92
2021/12/28 14:08:42;;;;;;;398.30;110.33;;;;;;;;;;6175467;23;20634;-91
2021/12/28 14:12:04;;;;;;;679.73;191.13;;;;;;;;;;6174871;23;20172;-91
2021/12/28 14:15:23;;;;;;;74.43;23.53;;;;;;;;;;6175067;23;20196;-89
2021/12/28 14:18:31;;;;;;;87.97;24.57;;;;;;;;;;6176471;23;20169;-89
2021/12/28 14:45:46;;;;;;;74.30;24.37;;;;;;;;;;6116523;23;20226;-91
2021/12/28 14:48:52;;;;;;;77.53;26.30;;;;;;;;;;6099249;23;20211;-92
2021/12/28 14:52:14;;;;;;;80.90;25.17;;;;;;;;;;6100986;23;20222;-91
2021/12/28 14:55:21;;;;;;;76.23;23.87;;;;;;;;;;6097826;23;20245;-91
2021/12/28 14:58:29;;;;;;;83.07;27.67;;;;;;;;;;6098088;23;20239;-91
2021/12/28 15:01:36;;;;;;;67.80;23.93;;;;;;;;;;6101708;23;20205;-90
2021/12/28 15:04:41;;;;;;;70.63;22.90;;;;;;;;;;6096371;23;20174;-92
2021/12/28 15:07:53;;;;;;;69.83;22.73;;;;;;;;;;6115028;23;20226;-91
2021/12/28 15:11:03;;;;;;;71.23;24.07;;;;;;;;;;6114664;23;20245;-90
2021/12/28 15:14:16;;;;;;;71.93;23.97;;;;;;;;;;6099053;23;20158;-90
2021/12/28 15:17:27;;;;;;;72.43;22.17;;;;;;;;;;6097826;23;20240;-91
2021/12/28 15:20:32;;;;;;;70.90;22.63;;;;;;;;;;6098627;23;20197;-91
2021/12/28 15:23:39;;;;;;;76.10;22.53;;;;;;;;;;6116131;23;20162;-91
2021/12/28 15:26:44;;;;;;;72.63;24.07;;;;;;;;;;6096161;23;20194;-91
2021/12/28 15:29:49;;;;;;;74.23;22.93;;;;;;;;;;6096697;23;20273;-90
2021/12/28 15:32:56;;;;;;;69.63;22.40;;;;;;;;;;6095422;23;20197;-89
2021/12/28 15:36:02;;;;;;;71.77;24.00;;;;;;;;;;6098289;23;20682;-90
2021/12/28 15:39:07;;;;;;;68.10;22.77;;;;;;;;;;6096968;23;20228;-91
2021/12/28 15:42:13;;;;;;;71.23;22.27;;;;;;;;;;6098588;23;20186;-90
2021/12/28 15:45:22;;;;;;;70.87;22.37;;;;;;;;;;6102521;23;20219;-88
2021/12/28 15:48:29;;;;;;;71.97;23.90;;;;;;;;;;6099626;23;20190;-92
2021/12/28 15:51:34;;;;;;;67.73;23.47;;;;;;;;;;6100387;23;20178;-89
2021/12/28 15:54:40;;;;;;;67.03;21.60;;;;;;;;;;6100421;23;20178;-90
2021/12/28 15:57:46;;;;;;;69.00;21.73;;;;;;;;;;6101976;23;20171;-90
2021/12/28 16:00:52;;;;;;;65.70;22.67;;;;;;;;;;6098404;23;20193;-93
2021/12/28 16:04:02;;;;;;;68.90;22.30;;;;;;;;;;6097071;23;20170;-91
2021/12/28 16:07:08;;;;;;;74.13;22.17;;;;;;;;;;6099708;23;20174;-92
2021/12/28 16:10:13;;;;;;;72.50;24.07;;;;;;;;;;6098342;23;20190;-91
2021/12/28 16:13:21;;;;;;;56.83;20.00;;;;;;;;;;6100313;23;20170;-92
2021/12/28 16:16:27;;;;;;;51.97;19.67;;;;;;;;;;6098728;23;20548;-91
2021/12/28 16:19:33;;;;;;;50.30;17.70;;;;;;;;;;6113860;23;20174;-91
2021/12/28 16:22:38;;;;;;;53.27;16.03;;;;;;;;;;6096448;23;20194;-91
2021/12/28 16:25:43;;;;;;;42.03;14.80;;;;;;;;;;6094478;23;20177;-92
2021/12/28 16:28:53;;;;;;;45.07;15.83;;;;;;;;;;6098019;23;20223;-93
2021/12/28 16:31:58;;;;;;;43.80;15.73;;;;;;;;;;6097688;23;20219;-93
2021/12/28 16:35:05;;;;;;;43.33;14.17;;;;;;;;;;6097454;23;20178;-91
2021/12/28 16:38:11;;;;;;;39.63;13.90;;;;;;;;;;6118332;23;20228;-93
2021/12/28 16:41:23;;;;;;;42.10;15.03;;;;;;;;;;6097494;23;20221;-93
2021/12/28 16:44:30;;;;;;;38.20;13.97;;;;;;;;;;6098311;23;20194;-92
2021/12/28 16:47:36;;;;;;;40.43;14.23;;;;;;;;;;6098669;23;20173;-92
2021/12/28 16:50:43;;;;;;;39.20;14.43;;;;;;;;;;6095997;23;20169;-91
2021/12/28 16:53:48;;;;;;;45.53;15.37;;;;;;;;;;6096734;23;20208;-91
2021/12/28 16:56:53;;;;;;;33.03;13.53;;;;;;;;;;6096109;23;20238;-92
2021/12/28 16:59:59;;;;;;;37.67;14.87;;;;;;;;;;6111240;23;20624;-90
2021/12/28 17:03:04;;;;;;;31.17;11.30;;;;;;;;;;6096444;23;20253;-90
2021/12/28 17:06:12;;;;;;;32.10;12.90;;;;;;;;;;6096731;23;20174;-92
2021/12/28 17:09:18;;;;;;;41.13;15.27;;;;;;;;;;6113087;23;20187;-90
2021/12/28 17:12:23;;;;;;;34.47;12.93;;;;;;;;;;6097348;23;20158;-90
2021/12/28 17:15:29;;;;;;;27.80;11.30;;;;;;;;;;6115048;23;20173;-91
2021/12/28 17:18:38;;;;;;;34.07;12.97;;;;;;;;;;6097278;23;20170;-91
2021/12/28 17:21:45;;;;;;;33.17;12.77;;;;;;;;;;6095981;23;20277;-91
2021/12/28 17:24:50;;;;;;;30.37;12.00;;;;;;;;;;6095249;23;20225;-91
2021/12/28 17:27:56;;;;;;;33.83;12.60;;;;;;;;;;6098778;23;20178;-91
2021/12/28 17:31:02;;;;;;;31.07;12.03;;;;;;;;;;6111116;23;20646;-91
2021/12/28 17:34:07;;;;;;;67.90;23.80;;;;;;;;;;6096134;23;20177;-90
2021/12/28 17:37:16;;;;;;;33.13;13.00;;;;;;;;;;6097333;23;20178;-91
2021/12/28 17:40:21;;;;;;;26.87;10.67;;;;;;;;;;6094891;23;20178;-92
2021/12/28 17:43:27;;;;;;;28.13;11.77;;;;;;;;;;6095432;23;20197;-92
2021/12/28 17:46:33;;;;;;;34.20;12.80;;;;;;;;;;6096100;23;20186;-90
2021/12/28 17:49:38;;;;;;;35.87;14.50;;;;;;;;;;6097688;23;20181;-90
2021/12/28 17:52:45;;;;;;;30.57;12.17;;;;;;;;;;6097062;23;20218;-91
2021/12/28 17:55:50;;;;;;;31.67;14.20;;;;;;;;;;6094720;23;20173;-91
2021/12/28 17:58:56;;;;;;;37.00;13.97;;;;;;;;;;6092552;23;20169;-91
2021/12/28 18:02:02;;;;;;;42.73;18.33;;;;;;;;;;6098901;23;20209;-90
2021/12/28 18:05:08;;;;;;;41.57;16.80;;;;;;;;;;6099463;23;20202;-92
2021/12/28 18:08:14;;;;;;;44.37;18.13;;;;;;;;;;6099544;23;20178;-93
2021/12/28 18:11:20;;;;;;;66.37;26.07;;;;;;;;;;6098226;23;20173;-91
2021/12/28 18:14:25;;;;;;;50.00;19.33;;;;;;;;;;6095332;23;20223;-91
2021/12/28 18:17:31;;;;;;;45.37;18.30;;;;;;;;;;6097308;23;20202;-91
2021/12/28 18:20:37;;;;;;;76.70;30.33;;;;;;;;;;6097367;23;20175;-91
2021/12/28 18:23:44;;;;;;;47.50;20.10;;;;;;;;;;6095343;23;20181;-92
2021/12/28 18:26:49;;;;;;;55.77;22.40;;;;;;;;;;6094911;23;20232;-92
2021/12/28 18:29:58;;;;;;;46.53;18.83;;;;;;;;;;6095456;23;20186;-92
2021/12/28 18:33:05;;;;;;;49.63;19.43;;;;;;;;;;6095477;23;20161;-91
2021/12/28 18:36:10;;;;;;;40.00;16.40;;;;;;;;;;6095774;23;20178;-92
2021/12/28 18:39:21;;;;;;;40.60;16.23;;;;;;;;;;6097802;23;20521;-91
2021/12/28 18:42:26;;;;;;;55.20;20.13;;;;;;;;;;6111070;23;20719;-92
2021/12/28 18:45:32;;;;;;;40.37;15.27;;;;;;;;;;6094672;23;20254;-89
2021/12/28 18:48:38;;;;;;;57.07;24.10;;;;;;;;;;6111786;23;20165;-92
2021/12/28 18:51:44;;;;;;;33.50;15.43;;;;;;;;;;6110773;23;20222;-91
2021/12/28 18:54:51;;;;;;;36.97;16.63;;;;;;;;;;6096259;23;20217;-91
2021/12/28 18:57:56;;;;;;;36.13;13.87;;;;;;;;;;6095344;23;20369;-91
2021/12/28 19:01:04;;;;;;;34.70;15.57;;;;;;;;;;6094844;23;20197;-93
2021/12/28 19:04:10;;;;;;;39.10;16.67;;;;;;;;;;6098394;23;20199;-91
2021/12/28 19:07:16;;;;;;;38.10;14.57;;;;;;;;;;6097936;23;20169;-91
2021/12/28 19:10:24;;;;;;;45.63;18.03;;;;;;;;;;6096207;23;20207;-91
2021/12/28 19:13:32;;;;;;;39.47;17.43;;;;;;;;;;6094880;23;20670;-92
2021/12/28 19:16:37;;;;;;;43.93;17.60;;;;;;;;;;6096902;23;20218;-94
2021/12/28 19:19:42;;;;;;;40.77;16.90;;;;;;;;;;6095375;23;20153;-93
2021/12/28 19:22:46;;;;;;;45.90;19.17;;;;;;;;;;6095298;23;20193;-91
2021/12/28 19:25:54;;;;;;;35.30;16.13;;;;;;;;;;6095390;23;20169;-91
2021/12/28 19:29:00;;;;;;;39.27;16.13;;;;;;;;;;6096429;23;20206;-92
2021/12/28 19:32:06;;;;;;;43.80;18.87;;;;;;;;;;6113414;23;20174;-92
2021/12/28 19:35:12;;;;;;;43.43;17.37;;;;;;;;;;6095143;23;20494;-92
2021/12/28 19:38:18;;;;;;;43.47;17.83;;;;;;;;;;6096525;23;20177;-91
2021/12/28 19:41:25;;;;;;;45.63;19.33;;;;;;;;;;6096180;23;20202;-93
2021/12/28 19:44:30;;;;;;;53.93;21.33;;;;;;;;;;6095561;23;20181;-92
2021/12/28 19:47:35;;;;;;;46.40;19.63;;;;;;;;;;6095917;23;20170;-93
2021/12/28 19:50:41;;;;;;;43.33;17.23;;;;;;;;;;6095100;23;20174;-93
2021/12/28 19:53:47;;;;;;;49.67;19.97;;;;;;;;;;6094843;23;20210;-92
2021/12/28 19:56:54;;;;;;;61.50;28.73;;;;;;;;;;6114314;23;20161;-91
2021/12/28 19:59:59;;;;;;;42.97;18.93;;;;;;;;;;6097475;23;20174;-93
2021/12/28 20:03:06;;;;;;;41.20;17.37;;;;;;;;;;6112863;23;20193;-93
2021/12/28 20:06:12;;;;;;;42.73;17.63;;;;;;;;;;6098087;23;20162;-92
2021/12/28 20:09:21;;;;;;;42.97;19.13;;;;;;;;;;6098575;23;20182;-92
2021/12/28 20:12:28;;;;;;;51.67;20.43;;;;;;;;;;6099289;23;20166;-93
2021/12/28 20:15:34;;;;;;;46.57;18.87;;;;;;;;;;6117929;23;20178;-92
2021/12/28 20:18:40;;;;;;;44.20;18.13;;;;;;;;;;6115852;23;20170;-91
2021/12/28 20:21:47;;;;;;;43.20;16.93;;;;;;;;;;6115586;23;20223;-93
2021/12/28 20:24:53;;;;;;;41.67;17.10;;;;;;;;;;6115305;23;20169;-92
2021/12/28 20:28:00;;;;;;;51.33;20.70;;;;;;;;;;6100277;23;20166;-93
2021/12/28 20:31:07;;;;;;;49.50;20.70;;;;;;;;;;6115470;23;20218;-93
2021/12/28 20:34:12;;;;;;;71.33;23.63;;;;;;;;;;6100156;23;20214;-92
2021/12/28 20:37:19;;;;;;;56.20;21.20;;;;;;;;;;6099187;23;20610;-92
2021/12/28 20:40:25;;;;;;;56.97;22.80;;;;;;;;;;6116146;23;20174;-92
2021/12/28 20:43:33;;;;;;;65.00;24.30;;;;;;;;;;6097279;23;20548;-94
2021/12/28 20:46:38;;;;;;;50.87;19.93;;;;;;;;;;6095662;23;20194;-93
2021/12/28 20:49:46;;;;;;;47.77;18.47;;;;;;;;;;6097268;23;20220;-93
2021/12/28 20:52:51;;;;;;;41.63;17.77;;;;;;;;;;6097625;23;20173;-93
2021/12/28 20:55:58;;;;;;;49.93;19.10;;;;;;;;;;6113912;23;20286;-92
2021/12/28 20:59:05;;;;;;;68.47;25.27;;;;;;;;;;6099976;23;20162;-92
2021/12/28 21:02:11;;;;;;;61.07;22.30;;;;;;;;;;6099414;23;20200;-92
2021/12/28 21:05:17;;;;;;;68.60;26.43;;;;;;;;;;6098010;23;20322;-93
2021/12/28 21:08:22;;;;;;;72.70;23.70;;;;;;;;;;6115781;23;20202;-92
2021/12/28 21:11:27;;;;;;;72.47;23.53;;;;;;;;;;6099683;23;20177;-93
2021/12/28 21:14:34;;;;;;;71.40;29.13;;;;;;;;;;6098567;23;20166;-90
2021/12/28 21:17:40;;;;;;;61.80;22.90;;;;;;;;;;6099903;23;20165;-92
2021/12/28 21:20:45;;;;;;;68.23;23.90;;;;;;;;;;6097893;23;20248;-92
2021/12/28 21:23:53;;;;;;;64.07;23.13;;;;;;;;;;6095975;23;20170;-94
2021/12/28 21:26:58;;;;;;;59.27;22.40;;;;;;;;;;6096423;23;20286;-91
2021/12/28 21:30:07;;;;;;;60.23;23.23;;;;;;;;;;6095869;23;20187;-91
2021/12/28 21:33:12;;;;;;;54.97;20.93;;;;;;;;;;6094343;23;20174;-92
2021/12/28 21:36:20;;;;;;;63.33;22.87;;;;;;;;;;6113244;23;20178;-91
2021/12/28 21:39:26;;;;;;;58.20;22.70;;;;;;;;;;6095907;23;20166;-92
2021/12/28 21:42:31;;;;;;;63.63;22.10;;;;;;;;;;6113651;23;20193;-91
2021/12/28 21:45:38;;;;;;;47.37;18.97;;;;;;;;;;6113703;23;20242;-91
2021/12/28 21:48:44;;;;;;;44.87;19.23;;;;;;;;;;6096403;23;20190;-92
2021/12/28 21:51:51;;;;;;;46.00;18.23;;;;;;;;;;6095577;23;20182;-93
2021/12/28 21:55:00;;;;;;;47.10;18.37;;;;;;;;;;6097502;23;20190;-92
2021/12/28 21:58:05;;;;;;;48.10;17.10;;;;;;;;;;6113000;23;20177;-91
2021/12/28 22:01:19;;;;;;;44.40;17.47;;;;;;;;;;6112760;23;20177;-91
2021/12/28 22:04:25;;;;;;;38.17;16.13;;;;;;;;;;6114982;23;20599;-92
2021/12/28 22:07:33;;;;;;;41.13;16.33;;;;;;;;;;6096445;23;20178;-94
2021/12/28 22:10:39;;;;;;;48.97;18.37;;;;;;;;;;6113204;23;20178;-92
2021/12/28 22:13:44;;;;;;;94.30;37.10;;;;;;;;;;6096622;23;20496;-91
2021/12/28 22:16:51;;;;;;;44.93;18.53;;;;;;;;;;6095653;23;20214;-91
2021/12/28 22:19:56;;;;;;;51.70;22.60;;;;;;;;;;6096244;23;20244;-92